Time;durP1;ratioP1;P1;durP2;ratioP2;P2;SDS_P1;SDS_P2;PMS_P1;PMS_P2;Temp;Humidity;BMP_temperature;BMP_pressure;BME280_temperature;BME280_humidity;BME280_pressure;Samples;Min_cycle;Max_cycle;Signal;HPM_P1;HPM_P2
2023/10/22 00:00:59;;;;;;;0.77;0.77;;;15.80;43.10;;;;;;10388880;28;20232;-75
2023/10/22 00:06:04;;;;;;;1.27;0.70;;;15.70;44.00;;;;;;10393406;28;20218;-75
2023/10/22 00:11:07;;;;;;;0.80;0.80;;;15.60;44.00;;;;;;10387761;28;20234;-75
2023/10/22 00:16:10;;;;;;;1.43;0.80;;;15.50;43.60;;;;;;10395019;28;20769;-74
2023/10/22 00:21:15;;;;;;;1.53;0.80;;;15.40;43.70;;;;;;10395290;28;20238;-74
2023/10/22 00:26:18;;;;;;;0.83;0.83;;;15.40;44.40;;;;;;10390704;28;20223;-75
2023/10/22 00:31:21;;;;;;;0.80;0.80;;;15.30;43.90;;;;;;10390317;28;20616;-75
2023/10/22 00:36:26;;;;;;;1.00;1.00;;;15.20;44.00;;;;;;10399502;28;20312;-75
2023/10/22 00:41:29;;;;;;;1.10;1.00;;;15.10;44.40;;;;;;10397300;28;20696;-75
2023/10/22 00:46:32;;;;;;;1.20;1.07;;;15.10;44.40;;;;;;10398404;28;20707;-75
2023/10/22 00:51:37;;;;;;;0.80;0.80;;;15.10;44.40;;;;;;10395094;28;20252;-74
2023/10/22 00:56:40;;;;;;;0.83;0.80;;;15.20;44.50;;;;;;10400157;28;20222;-75
2023/10/22 01:01:43;;;;;;;1.00;1.00;;;15.30;43.90;;;;;;10398699;28;20236;-72
2023/10/22 01:06:48;;;;;;;0.90;0.90;;;15.30;43.70;;;;;;10391912;28;20217;-72
2023/10/22 01:12:02;;;;;;;1.20;1.00;;;15.30;44.10;;;;;;10398114;28;20723;-72
2023/10/22 01:17:05;;;;;;;1.17;1.00;;;15.10;45.10;;;;;;10398374;28;20225;-72
2023/10/22 01:22:10;;;;;;;0.70;0.70;;;15.10;44.30;;;;;;10395782;28;20226;-72
2023/10/22 01:27:14;;;;;;;1.10;1.00;;;15.00;44.30;;;;;;10398664;28;20226;-72
2023/10/22 01:32:18;;;;;;;0.87;0.87;;;15.00;44.30;;;;;;10398945;28;20226;-76
2023/10/22 01:37:23;;;;;;;1.33;0.90;;;15.00;44.30;;;;;;10398469;28;20228;-73
2023/10/22 01:42:27;;;;;;;1.00;1.00;;;15.10;44.40;;;;;;10393977;28;20244;-73
2023/10/22 01:47:30;;;;;;;1.60;1.07;;;15.20;44.50;;;;;;10393791;28;20218;-72
2023/10/22 01:52:34;;;;;;;1.97;0.90;;;15.20;44.50;;;;;;10396403;28;20236;-72
2023/10/22 01:57:38;;;;;;;1.00;0.93;;;15.30;44.30;;;;;;10398834;28;20765;-72
2023/10/22 02:02:42;;;;;;;0.87;0.87;;;15.30;44.60;;;;;;10393908;28;20234;-72
2023/10/22 02:07:46;;;;;;;1.10;1.00;;;15.40;44.10;;;;;;10398149;28;20790;-73
2023/10/22 02:12:51;;;;;;;1.10;1.00;;;15.40;43.90;;;;;;10394389;28;20229;-76
2023/10/22 02:17:55;;;;;;;1.47;1.10;;;15.30;44.30;;;;;;10394672;28;20287;-76
2023/10/22 02:22:59;;;;;;;1.00;1.00;;;15.30;43.90;;;;;;10393200;28;20257;-76
2023/10/22 02:28:03;;;;;;;2.23;1.10;;;15.20;44.10;;;;;;10393008;28;20237;-75
2023/10/22 02:33:07;;;;;;;0.93;0.90;;;15.20;44.50;;;;;;10395561;28;20238;-75
2023/10/22 02:38:12;;;;;;;1.47;1.07;;;15.10;44.20;;;;;;10399452;28;20222;-76
2023/10/22 02:43:18;;;;;;;1.20;1.10;;;15.20;45.30;;;;;;10391880;28;20838;-75
2023/10/22 02:48:23;;;;;;;1.10;1.00;;;15.20;44.50;;;;;;10399074;28;20721;-78
2023/10/22 02:53:26;;;;;;;0.87;0.87;;;15.20;44.10;;;;;;10392246;28;20612;-76
2023/10/22 02:58:31;;;;;;;3.23;1.20;;;15.30;44.00;;;;;;10393352;28;20221;-77
2023/10/22 03:03:38;;;;;;;1.00;1.00;;;15.20;44.00;;;;;;10392819;28;20236;-77
2023/10/22 03:08:42;;;;;;;1.07;1.07;;;15.20;43.60;;;;;;10389690;28;20707;-77
2023/10/22 03:13:50;;;;;;;1.23;0.93;;;15.10;43.80;;;;;;10397653;28;20225;-77
2023/10/22 03:18:53;;;;;;;1.23;1.00;;;15.10;44.20;;;;;;10387008;28;20320;-76
2023/10/22 03:23:56;;;;;;;1.77;1.10;;;15.00;44.00;;;;;;10386770;28;20241;-77
2023/10/22 03:29:01;;;;;;;1.00;0.90;;;15.10;44.10;;;;;;10390925;28;20225;-77
2023/10/22 03:34:04;;;;;;;1.10;1.00;;;15.10;44.30;;;;;;10390235;28;20891;-77
2023/10/22 03:39:08;;;;;;;1.00;1.00;;;15.10;43.80;;;;;;10391305;28;20230;-77
2023/10/22 03:44:12;;;;;;;0.97;0.97;;;15.10;43.60;;;;;;10395252;28;20237;-77
2023/10/22 03:49:16;;;;;;;3.83;1.00;;;15.10;43.60;;;;;;10393474;28;20336;-77
2023/10/22 03:54:19;;;;;;;0.93;0.90;;;15.10;43.30;;;;;;10391881;28;20226;-77
2023/10/22 03:59:24;;;;;;;0.90;0.90;;;15.10;43.10;;;;;;10383746;28;20369;-77
2023/10/22 04:04:27;;;;;;;0.90;0.90;;;15.00;42.90;;;;;;10387682;28;20245;-77
2023/10/22 04:09:30;;;;;;;1.10;0.63;;;15.00;42.80;;;;;;10393222;28;20230;-77
2023/10/22 04:14:36;;;;;;;1.23;0.90;;;14.90;42.70;;;;;;10393746;28;20221;-77
2023/10/22 04:19:39;;;;;;;0.80;0.80;;;14.90;42.60;;;;;;10392907;28;20283;-77
2023/10/22 04:24:43;;;;;;;0.80;0.80;;;14.90;42.40;;;;;;10392873;28;20222;-77
2023/10/22 04:29:47;;;;;;;0.77;0.70;;;14.80;42.30;;;;;;10386042;28;20229;-77
2023/10/22 04:34:50;;;;;;;1.03;0.80;;;14.80;42.40;;;;;;10394220;28;20222;-77
2023/10/22 04:39:53;;;;;;;0.90;0.90;;;14.70;42.20;;;;;;10384763;28;20236;-77
2023/10/22 04:45:02;;;;;;;0.83;0.80;;;14.60;42.20;;;;;;10394019;28;21072;-77
2023/10/22 04:50:06;;;;;;;0.80;0.80;;;14.60;42.30;;;;;;10389346;28;20234;-77
2023/10/22 04:55:11;;;;;;;0.80;0.80;;;14.60;42.30;;;;;;10389469;28;20225;-77
2023/10/22 05:00:16;;;;;;;0.90;0.90;;;14.50;42.40;;;;;;10390801;28;20655;-76
2023/10/22 05:05:20;;;;;;;1.30;1.20;;;14.50;42.70;;;;;;10386826;28;20664;-76
2023/10/22 05:10:24;;;;;;;5.70;4.40;;;14.40;42.60;;;;;;10387729;28;20233;-77
2023/10/22 05:15:28;;;;;;;4.47;3.40;;;14.40;42.70;;;;;;10382077;28;20603;-77
2023/10/22 05:20:32;;;;;;;2.80;2.30;;;14.40;42.90;;;;;;10395563;28;20235;-77
2023/10/22 05:25:36;;;;;;;2.07;1.87;;;14.40;42.90;;;;;;10397672;28;20257;-77
2023/10/22 05:30:41;;;;;;;1.70;1.60;;;14.40;43.00;;;;;;10394455;28;20225;-77
2023/10/22 05:35:44;;;;;;;3.30;1.40;;;14.40;43.30;;;;;;10392903;28;20255;-77
2023/10/22 05:40:47;;;;;;;1.20;1.10;;;14.40;43.00;;;;;;10385517;28;20245;-77
2023/10/22 05:45:58;;;;;;;1.70;1.13;;;14.40;42.80;;;;;;10393329;28;20229;-77
2023/10/22 05:51:01;;;;;;;0.93;0.90;;;14.40;43.40;;;;;;10394312;28;20230;-76
2023/10/22 05:56:05;;;;;;;1.13;0.80;;;14.40;43.10;;;;;;10398280;28;20287;-75
2023/10/22 06:01:11;;;;;;;1.67;1.10;;;14.40;42.90;;;;;;10397676;28;20241;-75
2023/10/22 06:06:18;;;;;;;2.73;1.20;;;14.30;43.20;;;;;;10394524;28;20229;-75
2023/10/22 06:11:22;;;;;;;1.70;1.40;;;14.30;43.50;;;;;;10389907;28;20325;-75
2023/10/22 06:16:26;;;;;;;2.33;1.30;;;14.20;43.10;;;;;;10398600;28;20221;-74
2023/10/22 06:21:29;;;;;;;1.40;1.30;;;14.20;43.20;;;;;;10390366;28;20234;-75
2023/10/22 06:26:32;;;;;;;2.53;2.00;;;14.20;43.00;;;;;;10383675;28;20239;-75
2023/10/22 06:31:37;;;;;;;14.43;10.23;;;14.20;43.20;;;;;;10389200;28;20233;-74
2023/10/22 06:36:40;;;;;;;14.70;12.13;;;14.20;43.40;;;;;;10397870;28;20217;-74
2023/10/22 06:41:47;;;;;;;10.87;9.23;;;14.20;43.30;;;;;;10393024;28;20233;-75
2023/10/22 06:46:52;;;;;;;9.33;8.40;;;14.10;43.40;;;;;;10392190;28;20226;-75
2023/10/22 06:51:55;;;;;;;7.77;6.77;;;14.10;43.60;;;;;;10390875;28;20264;-74
2023/10/22 06:56:59;;;;;;;7.10;6.40;;;14.20;43.70;;;;;;10383233;28;20221;-75
2023/10/22 07:02:04;;;;;;;6.17;5.53;;;14.20;43.60;;;;;;10396609;28;20257;-74
2023/10/22 07:07:07;;;;;;;4.93;4.53;;;14.20;43.60;;;;;;10390957;28;20576;-74
2023/10/22 07:12:10;;;;;;;5.33;4.93;;;14.20;43.60;;;;;;10398105;28;20716;-74
2023/10/22 07:17:15;;;;;;;4.50;4.10;;;14.30;43.70;;;;;;10388723;28;20225;-73
2023/10/22 07:22:18;;;;;;;4.13;3.83;;;14.30;43.70;;;;;;10392262;28;20225;-73
2023/10/22 07:27:21;;;;;;;3.73;3.43;;;14.40;43.80;;;;;;10394326;28;20237;-73
2023/10/22 07:32:26;;;;;;;2.90;2.70;;;14.40;43.80;;;;;;10389717;28;20229;-73
2023/10/22 07:37:29;;;;;;;2.27;1.40;;;14.40;44.50;;;;;;10391648;28;20703;-73
2023/10/22 07:42:34;;;;;;;2.07;1.90;;;14.50;44.70;;;;;;10391423;28;20726;-74
2023/10/22 07:47:39;;;;;;;3.07;1.33;;;14.60;45.20;;;;;;10390205;28;20813;-73
2023/10/22 07:52:42;;;;;;;1.57;1.00;;;14.80;46.70;;;;;;10389038;28;20232;-73
2023/10/22 07:57:45;;;;;;;1.90;1.37;;;15.00;45.40;;;;;;10391623;28;20316;-72
2023/10/22 08:02:50;;;;;;;2.27;2.00;;;15.30;45.60;;;;;;10393512;28;20237;-73
2023/10/22 08:07:53;;;;;;;1.20;1.10;;;15.50;44.90;;;;;;10392688;28;20253;-72
2023/10/22 08:12:57;;;;;;;1.27;0.80;;;15.70;45.00;;;;;;10394791;28;20247;-73
2023/10/22 08:18:02;;;;;;;1.40;1.00;;;16.00;45.20;;;;;;10384270;28;20248;-72
2023/10/22 08:23:06;;;;;;;1.83;1.27;;;16.30;45.40;;;;;;10393701;28;20607;-72
2023/10/22 08:28:10;;;;;;;1.73;1.07;;;16.50;45.00;;;;;;10391190;28;20249;-72
2023/10/22 08:33:15;;;;;;;1.23;1.00;;;16.80;44.20;;;;;;10390179;28;20233;-73
2023/10/22 08:38:18;;;;;;;2.23;0.80;;;17.00;43.30;;;;;;10392650;28;20576;-72
2023/10/22 08:43:21;;;;;;;1.10;1.00;;;17.20;43.30;;;;;;10379851;28;21368;-77
2023/10/22 08:48:27;;;;;;;2.07;0.97;;;17.40;42.70;;;;;;10388585;28;20229;-77
2023/10/22 08:53:31;;;;;;;2.07;1.00;;;17.50;41.90;;;;;;10379510;28;20240;-74
2023/10/22 08:58:34;;;;;;;2.13;1.30;;;17.60;42.50;;;;;;10393505;28;20658;-74
2023/10/22 09:03:38;;;;;;;0.93;0.90;;;17.60;42.20;;;;;;10391442;28;20229;-76
2023/10/22 09:08:45;;;;;;;1.40;1.00;;;17.70;41.70;;;;;;10391537;28;20238;-76
2023/10/22 09:13:48;;;;;;;2.03;1.00;;;17.80;41.50;;;;;;10401417;28;20240;-75
2023/10/22 09:18:53;;;;;;;2.47;1.30;;;18.00;41.40;;;;;;10391957;28;20220;-74
2023/10/22 09:24:04;;;;;;;1.57;1.13;;;18.10;41.20;;;;;;10402760;28;20226;-74
2023/10/22 09:29:08;;;;;;;1.37;1.10;;;18.30;40.50;;;;;;10392155;28;20219;-74
2023/10/22 09:34:26;;;;;;;1.10;1.00;;;18.40;41.30;;;;;;10377933;28;20257;-75
2023/10/22 09:39:36;;;;;;;1.20;1.00;;;18.50;39.40;;;;;;10372458;28;20907;-75
2023/10/22 09:44:40;;;;;;;1.80;1.00;;;18.60;40.30;;;;;;10379448;28;20359;-73
2023/10/22 09:49:51;;;;;;;0.80;0.80;;;18.70;40.80;;;;;;10378855;28;20236;-74
2023/10/22 09:54:55;;;;;;;2.00;1.17;;;18.80;39.20;;;;;;10378819;28;20771;-73
2023/10/22 10:00:04;;;;;;;1.57;0.90;;;18.90;39.90;;;;;;10378567;28;20242;-73
2023/10/22 10:05:11;;;;;;;1.13;0.80;;;18.90;39.80;;;;;;10366259;28;20258;-73
2023/10/22 10:10:14;;;;;;;1.30;0.90;;;19.00;39.30;;;;;;10376603;28;20955;-77
2023/10/22 10:15:35;;;;;;;1.63;1.10;;;19.10;39.80;;;;;;10376868;28;20761;-77
2023/10/22 10:20:42;;;;;;;2.57;0.80;;;19.20;39.00;;;;;;10373724;28;20574;-77
2023/10/22 10:25:45;;;;;;;2.20;1.20;;;19.40;37.90;;;;;;10382647;28;20225;-78
2023/10/22 10:30:52;;;;;;;1.13;0.83;;;19.50;38.50;;;;;;10378550;28;20229;-77
2023/10/22 10:35:57;;;;;;;1.00;0.90;;;19.60;36.90;;;;;;10379950;28;20264;-74
2023/10/22 10:41:00;;;;;;;1.43;1.03;;;19.50;37.60;;;;;;10378595;28;20241;-73
2023/10/22 10:46:25;;;;;;;1.07;0.80;;;19.60;38.60;;;;;;10380550;28;20650;-74
2023/10/22 10:51:30;;;;;;;2.33;1.00;;;19.60;37.20;;;;;;10369518;28;20316;-73
2023/10/22 10:56:49;;;;;;;1.00;0.70;;;19.60;37.60;;;;;;10364609;28;20233;-72
2023/10/22 11:01:59;;;;;;;1.40;1.07;;;19.70;36.20;;;;;;10378543;28;20234;-74
2023/10/22 11:07:04;;;;;;;1.10;1.00;;;19.70;36.20;;;;;;10375507;28;20252;-76
2023/10/22 11:12:28;;;;;;;1.10;1.00;;;19.80;36.40;;;;;;10375943;28;20691;-76
2023/10/22 11:17:32;;;;;;;1.40;0.90;;;19.90;36.50;;;;;;10376031;28;20225;-76
2023/10/22 11:22:38;;;;;;;1.73;0.90;;;20.00;36.50;;;;;;10377064;28;21047;-74
2023/10/22 11:27:41;;;;;;;0.80;0.67;;;20.00;35.60;;;;;;10377534;28;20225;-74
2023/10/22 11:32:48;;;;;;;1.20;0.70;;;20.00;36.50;;;;;;10373225;28;20320;-74
2023/10/22 11:37:54;;;;;;;1.40;0.70;;;20.00;35.30;;;;;;10373042;28;20236;-73
2023/10/22 11:42:59;;;;;;;1.63;0.80;;;20.00;36.40;;;;;;10380262;28;20311;-73
2023/10/22 11:48:13;;;;;;;1.00;0.80;;;20.00;35.60;;;;;;10382383;28;20288;-77
2023/10/22 11:53:18;;;;;;;1.43;0.90;;;20.00;34.10;;;;;;10383494;28;20226;-73
2023/10/22 11:58:24;;;;;;;0.70;0.70;;;20.00;34.70;;;;;;10382103;28;20712;-73
2023/10/22 12:03:28;;;;;;;0.80;0.80;;;19.90;35.10;;;;;;10385071;28;20327;-73
2023/10/22 12:08:33;;;;;;;0.73;0.60;;;19.70;35.60;;;;;;10381661;28;20236;-73
2023/10/22 12:13:36;;;;;;;2.17;0.80;;;19.60;34.80;;;;;;10383333;28;20226;-73
2023/10/22 12:18:39;;;;;;;2.70;0.90;;;19.50;35.70;;;;;;10382072;28;20233;-72
2023/10/22 12:23:44;;;;;;;1.23;0.80;;;19.50;35.30;;;;;;10379890;28;20233;-73
2023/10/22 12:28:52;;;;;;;1.77;0.70;;;19.50;34.50;;;;;;10386329;28;20225;-74
2023/10/22 12:33:56;;;;;;;1.63;0.90;;;19.60;34.90;;;;;;10391285;28;20233;-74
2023/10/22 12:39:01;;;;;;;1.13;0.60;;;19.50;34.70;;;;;;10389975;28;20236;-74
2023/10/22 12:44:05;;;;;;;1.03;0.80;;;19.60;34.50;;;;;;10387334;28;20229;-74
2023/10/22 12:49:08;;;;;;;2.03;0.70;;;19.60;34.20;;;;;;10390516;28;20261;-74
2023/10/22 12:54:13;;;;;;;0.77;0.70;;;19.60;34.20;;;;;;10391611;28;20225;-73
2023/10/22 12:59:16;;;;;;;1.53;0.77;;;19.60;33.30;;;;;;10405969;28;20237;-73
2023/10/22 13:04:19;;;;;;;0.77;0.63;;;19.50;33.90;;;;;;10400567;28;20309;-73
2023/10/22 13:09:24;;;;;;;1.00;0.60;;;19.50;34.00;;;;;;10399059;28;20234;-74
2023/10/22 13:14:27;;;;;;;2.63;0.77;;;19.50;33.60;;;;;;10392810;28;20226;-74
2023/10/22 13:19:34;;;;;;;2.53;0.90;;;19.60;34.10;;;;;;10399875;28;20268;-74
2023/10/22 13:24:38;;;;;;;1.40;0.80;;;19.60;34.20;;;;;;10396788;28;20238;-75
2023/10/22 13:29:42;;;;;;;0.83;0.63;;;19.70;33.70;;;;;;10384304;28;20234;-75
2023/10/22 13:34:45;;;;;;;1.47;0.70;;;19.80;33.90;;;;;;10391569;28;20231;-74
2023/10/22 13:39:50;;;;;;;1.03;0.80;;;19.80;33.70;;;;;;10396414;28;20707;-75
2023/10/22 13:44:53;;;;;;;1.43;0.80;;;19.80;33.00;;;;;;10398213;28;20680;-74
2023/10/22 13:49:57;;;;;;;0.67;0.60;;;19.90;33.30;;;;;;10393199;28;20628;-74
2023/10/22 13:55:02;;;;;;;0.93;0.63;;;19.90;33.00;;;;;;10395369;28;20665;-75
2023/10/22 14:00:09;;;;;;;0.90;0.60;;;19.90;32.40;;;;;;10387178;28;20226;-75
2023/10/22 14:05:13;;;;;;;1.27;0.70;;;19.80;32.70;;;;;;10396936;28;20740;-74
2023/10/22 14:10:18;;;;;;;1.00;0.67;;;19.80;32.80;;;;;;10385486;28;20347;-75
2023/10/22 14:15:23;;;;;;;0.93;0.70;;;19.80;32.10;;;;;;10403143;28;20290;-75
2023/10/22 14:20:29;;;;;;;1.40;0.70;;;19.80;33.00;;;;;;10391350;28;20283;-74
2023/10/22 14:25:35;;;;;;;1.03;0.60;;;19.80;32.50;;;;;;10397459;28;20842;-75
2023/10/22 14:30:41;;;;;;;1.40;0.80;;;19.70;32.30;;;;;;10394230;28;20295;-74
2023/10/22 14:35:45;;;;;;;1.20;0.70;;;19.70;31.50;;;;;;10391819;28;20225;-75
2023/10/22 14:40:49;;;;;;;1.03;0.70;;;19.80;32.40;;;;;;10383132;28;20224;-75
2023/10/22 14:45:53;;;;;;;0.80;0.77;;;19.70;32.00;;;;;;10393313;28;20234;-74
2023/10/22 14:50:57;;;;;;;1.70;1.30;;;19.70;32.50;;;;;;10384210;28;20230;-77
2023/10/22 14:56:02;;;;;;;1.33;0.97;;;19.70;32.50;;;;;;10388615;28;20230;-75
2023/10/22 15:01:07;;;;;;;1.00;0.90;;;19.60;32.00;;;;;;10393957;28;20252;-74
2023/10/22 15:06:10;;;;;;;0.67;0.67;;;19.50;32.50;;;;;;10384413;28;20263;-73
2023/10/22 15:11:19;;;;;;;0.90;0.80;;;19.50;32.80;;;;;;10385448;28;20230;-73
2023/10/22 15:16:22;;;;;;;1.47;1.00;;;19.50;32.60;;;;;;10389571;28;20254;-73
2023/10/22 15:21:26;;;;;;;0.97;0.90;;;19.60;33.00;;;;;;10389560;28;20308;-73
2023/10/22 15:26:30;;;;;;;1.10;1.00;;;19.60;32.80;;;;;;10386447;28;20236;-73
2023/10/22 15:31:34;;;;;;;1.10;1.00;;;19.60;32.70;;;;;;10387467;28;20689;-73
2023/10/22 15:36:37;;;;;;;2.30;1.50;;;19.70;33.20;;;;;;10387784;28;20221;-73
2023/10/22 15:41:42;;;;;;;2.40;1.87;;;19.80;33.20;;;;;;10381517;28;20226;-73
2023/10/22 15:46:45;;;;;;;1.50;1.40;;;19.80;32.50;;;;;;10377081;28;20234;-73
2023/10/22 15:51:48;;;;;;;2.00;1.77;;;19.80;33.80;;;;;;10391860;28;20229;-73
2023/10/22 15:56:53;;;;;;;2.47;2.13;;;19.80;33.10;;;;;;10390010;28;20214;-73
2023/10/22 16:01:56;;;;;;;1.80;1.70;;;19.70;32.80;;;;;;10389962;28;20244;-73
2023/10/22 16:06:59;;;;;;;3.60;1.70;;;19.70;33.00;;;;;;10381196;28;20284;-73
2023/10/22 16:12:04;;;;;;;2.40;2.20;;;19.60;33.10;;;;;;10384274;28;20316;-74
2023/10/22 16:17:08;;;;;;;2.53;2.37;;;19.50;33.10;;;;;;10384430;28;20241;-73
2023/10/22 16:22:11;;;;;;;4.27;2.67;;;19.40;33.20;;;;;;10389002;28;20233;-74
2023/10/22 16:27:16;;;;;;;3.00;2.80;;;19.40;33.30;;;;;;10373933;28;20232;-74
2023/10/22 16:32:19;;;;;;;6.73;6.10;;;19.30;33.30;;;;;;10383384;28;20226;-74
2023/10/22 16:37:23;;;;;;;6.20;5.70;;;19.20;33.10;;;;;;10381561;28;20234;-74
2023/10/22 16:42:27;;;;;;;8.40;7.70;;;19.10;33.20;;;;;;10371714;28;20232;-74
2023/10/22 16:47:31;;;;;;;8.00;7.20;;;18.90;33.00;;;;;;10381011;28;20316;-74
2023/10/22 16:52:34;;;;;;;8.97;8.17;;;18.80;33.00;;;;;;10376218;28;20230;-73
2023/10/22 16:57:39;;;;;;;8.67;7.90;;;18.60;33.00;;;;;;10375273;28;20320;-73
2023/10/22 17:02:42;;;;;;;6.10;5.60;;;18.40;33.30;;;;;;10371310;28;20900;-72
2023/10/22 17:07:46;;;;;;;5.37;4.87;;;18.20;33.40;;;;;;10383216;28;20226;-73
2023/10/22 17:12:50;;;;;;;4.63;4.23;;;18.00;33.40;;;;;;10380029;28;20225;-73
2023/10/22 17:17:53;;;;;;;5.50;5.10;;;17.90;33.70;;;;;;10386943;28;20231;-73
2023/10/22 17:22:57;;;;;;;5.70;5.10;;;17.80;33.90;;;;;;10393828;28;20232;-72
2023/10/22 17:28:02;;;;;;;7.43;6.83;;;17.70;33.90;;;;;;10395865;28;20244;-75
2023/10/22 17:33:05;;;;;;;6.80;6.20;;;17.60;33.90;;;;;;10389182;28;20874;-73
2023/10/22 17:38:08;;;;;;;5.50;5.00;;;17.50;33.80;;;;;;10394908;28;20265;-73
2023/10/22 17:43:13;;;;;;;7.47;6.17;;;17.40;34.20;;;;;;10388627;28;20719;-73
2023/10/22 17:48:16;;;;;;;11.50;10.40;;;17.20;34.00;;;;;;10389774;28;20229;-73
2023/10/22 17:53:21;;;;;;;8.13;6.43;;;17.00;33.90;;;;;;10390154;28;20229;-73
2023/10/22 17:58:30;;;;;;;7.17;6.47;;;16.70;33.60;;;;;;10393301;28;20234;-73
2023/10/22 18:03:36;;;;;;;7.17;5.50;;;16.50;33.80;;;;;;10393168;28;20311;-73
2023/10/22 18:08:40;;;;;;;4.77;4.37;;;16.30;34.00;;;;;;10391875;28;20225;-73
2023/10/22 18:13:46;;;;;;;7.30;6.33;;;16.20;34.30;;;;;;10390662;28;20236;-73
2023/10/22 18:18:49;;;;;;;6.57;5.87;;;16.10;34.40;;;;;;10384542;28;20222;-74
2023/10/22 18:23:56;;;;;;;6.50;5.73;;;16.00;34.50;;;;;;10392250;28;20304;-74
2023/10/22 18:29:00;;;;;;;7.80;7.00;;;16.00;34.60;;;;;;10385668;28;20260;-74
2023/10/22 18:34:03;;;;;;;6.67;5.87;;;15.90;34.70;;;;;;10389025;28;20229;-74
2023/10/22 18:39:07;;;;;;;5.30;4.90;;;15.90;34.60;;;;;;10388649;28;20239;-74
2023/10/22 18:44:12;;;;;;;5.80;5.23;;;15.70;34.70;;;;;;10388057;28;20230;-73
2023/10/22 18:49:15;;;;;;;5.27;4.50;;;15.70;34.80;;;;;;10389467;28;20229;-74
2023/10/22 18:54:18;;;;;;;4.43;3.93;;;15.60;34.70;;;;;;10393788;28;20312;-74
2023/10/22 18:59:25;;;;;;;4.10;3.60;;;15.50;34.70;;;;;;10390967;28;20316;-74
2023/10/22 19:04:28;;;;;;;4.10;3.73;;;15.50;35.00;;;;;;10378337;28;20229;-74
2023/10/22 19:09:31;;;;;;;5.60;4.90;;;15.40;34.90;;;;;;10378245;28;20238;-72
2023/10/22 19:14:36;;;;;;;6.33;5.73;;;15.40;34.90;;;;;;10377058;28;20257;-73
2023/10/22 19:19:40;;;;;;;7.87;7.07;;;15.40;35.10;;;;;;10374273;28;20316;-73
2023/10/22 19:24:43;;;;;;;7.90;6.97;;;15.40;34.90;;;;;;10372010;28;20232;-73
2023/10/22 19:29:48;;;;;;;11.17;9.60;;;15.40;34.90;;;;;;10371847;28;20279;-73
2023/10/22 19:34:51;;;;;;;9.57;8.57;;;15.30;34.90;;;;;;10371203;28;20240;-74
2023/10/22 19:39:55;;;;;;;47.60;36.33;;;15.30;34.80;;;;;;10372304;28;20762;-73
2023/10/22 19:45:00;;;;;;;27.33;21.50;;;15.20;34.90;;;;;;10375664;28;20228;-73
2023/10/22 19:50:04;;;;;;;17.43;14.00;;;15.10;35.00;;;;;;10370223;28;20230;-74
2023/10/22 19:55:09;;;;;;;10.60;8.87;;;15.00;34.90;;;;;;10374719;28;20230;-74
2023/10/22 20:00:14;;;;;;;8.80;6.60;;;15.00;35.20;;;;;;10372287;28;21037;-74
2023/10/22 20:05:18;;;;;;;4.80;4.40;;;14.90;35.30;;;;;;10367560;28;20222;-73
2023/10/22 20:10:21;;;;;;;5.00;4.20;;;14.90;35.20;;;;;;10369677;28;20230;-73
2023/10/22 20:15:47;;;;;;;4.77;4.03;;;14.80;35.30;;;;;;10361802;28;20229;-74
2023/10/22 20:20:50;;;;;;;3.47;3.17;;;14.80;35.50;;;;;;10362734;28;20232;-73
2023/10/22 20:25:53;;;;;;;3.37;3.17;;;14.70;35.30;;;;;;10366959;28;20225;-73
2023/10/22 20:30:58;;;;;;;3.77;3.47;;;14.70;35.40;;;;;;10378764;28;20591;-73
2023/10/22 20:36:02;;;;;;;3.70;3.40;;;14.70;35.60;;;;;;10381428;28;20230;-74
2023/10/22 20:41:07;;;;;;;3.67;3.20;;;14.60;35.30;;;;;;10381155;28;20233;-74
2023/10/22 20:46:12;;;;;;;2.90;2.70;;;14.60;35.40;;;;;;10377109;28;20227;-73
2023/10/22 20:51:16;;;;;;;4.77;4.37;;;14.50;35.30;;;;;;10383917;28;20904;-73
2023/10/22 20:56:20;;;;;;;5.73;4.17;;;14.40;35.40;;;;;;10384792;28;20317;-73
2023/10/22 21:01:25;;;;;;;3.97;3.47;;;14.30;35.60;;;;;;10390645;28;20313;-73
2023/10/22 21:06:28;;;;;;;3.87;3.53;;;14.20;36.00;;;;;;10392883;28;20885;-74
2023/10/22 21:11:31;;;;;;;3.90;3.30;;;14.20;35.90;;;;;;10387379;28;20368;-73
2023/10/22 21:16:36;;;;;;;3.97;2.83;;;14.20;36.10;;;;;;10394931;28;20229;-74
2023/10/22 21:21:41;;;;;;;3.50;3.20;;;14.10;36.10;;;;;;10390227;28;20276;-74
2023/10/22 21:26:44;;;;;;;3.70;3.30;;;14.10;35.90;;;;;;10392946;28;20287;-74
2023/10/22 21:31:49;;;;;;;3.87;3.00;;;14.10;36.10;;;;;;10394637;28;20233;-74
2023/10/22 21:36:52;;;;;;;3.30;3.07;;;14.00;36.30;;;;;;10385828;28;20232;-75
2023/10/22 21:41:55;;;;;;;4.43;3.23;;;13.90;36.10;;;;;;10395240;28;20357;-75
2023/10/22 21:47:00;;;;;;;3.63;3.33;;;13.90;36.30;;;;;;10394182;28;20221;-76
2023/10/22 21:52:03;;;;;;;3.83;3.07;;;14.00;36.70;;;;;;10391451;28;20233;-75
2023/10/22 21:57:06;;;;;;;3.70;3.40;;;14.00;36.50;;;;;;10396120;28;20706;-74
2023/10/22 22:02:11;;;;;;;3.43;3.13;;;14.00;36.50;;;;;;10390216;28;20608;-74
2023/10/22 22:07:14;;;;;;;3.37;3.00;;;13.90;37.20;;;;;;10396818;28;20692;-74
2023/10/22 22:12:17;;;;;;;3.50;3.20;;;13.80;36.50;;;;;;10392201;28;20867;-74
2023/10/22 22:17:22;;;;;;;4.10;3.23;;;13.70;36.70;;;;;;10393924;28;20233;-74
2023/10/22 22:22:25;;;;;;;3.43;3.13;;;13.70;37.20;;;;;;10383796;28;20229;-74
2023/10/22 22:27:30;;;;;;;3.47;3.17;;;13.60;36.90;;;;;;10390114;28;20367;-76
2023/10/22 22:32:36;;;;;;;3.77;3.37;;;13.60;37.40;;;;;;10392484;28;20272;-73
2023/10/22 22:37:39;;;;;;;3.80;3.47;;;13.60;37.30;;;;;;10394452;28;20229;-74
2023/10/22 22:42:42;;;;;;;3.03;2.53;;;13.60;37.00;;;;;;10394981;28;20271;-74
2023/10/22 22:47:47;;;;;;;4.53;2.87;;;13.60;37.00;;;;;;10393477;28;20597;-75
2023/10/22 22:52:50;;;;;;;2.90;2.70;;;13.60;37.60;;;;;;10390609;28;20895;-75
2023/10/22 22:57:53;;;;;;;3.10;2.80;;;13.60;37.30;;;;;;10394537;28;20226;-75
2023/10/22 23:02:58;;;;;;;3.10;2.80;;;13.60;37.40;;;;;;10390876;28;20237;-73
2023/10/22 23:08:02;;;;;;;3.57;3.00;;;13.70;37.70;;;;;;10392860;28;20229;-73
2023/10/22 23:13:05;;;;;;;3.93;3.20;;;13.70;37.50;;;;;;10390107;28;20312;-73
2023/10/22 23:18:09;;;;;;;3.70;3.23;;;13.60;37.10;;;;;;10395120;28;20296;-75
2023/10/22 23:23:13;;;;;;;4.07;3.27;;;13.50;37.60;;;;;;10391592;28;21151;-75
2023/10/22 23:28:17;;;;;;;3.57;3.27;;;13.50;37.60;;;;;;10381438;28;20584;-74
2023/10/22 23:33:21;;;;;;;3.57;3.00;;;13.50;37.60;;;;;;10391831;28;20236;-73
2023/10/22 23:38:24;;;;;;;3.83;3.43;;;13.40;37.90;;;;;;10393123;28;20222;-73
2023/10/22 23:43:27;;;;;;;3.30;3.00;;;13.40;37.80;;;;;;10394714;28;20236;-74
2023/10/22 23:48:33;;;;;;;4.13;3.43;;;13.40;37.80;;;;;;10391517;28;20222;-73
2023/10/22 23:53:36;;;;;;;2.90;2.67;;;13.40;37.90;;;;;;10391090;28;20234;-73
2023/10/22 23:58:39;;;;;;;3.87;2.90;;;13.40;37.60;;;;;;10392761;28;20221;-73
